createdAt,value
2019-03-18T00:00:43.751Z,26.4
2019-03-18T00:03:49.668Z,26.4
2019-03-18T00:06:55.545Z,26.4
2019-03-18T00:10:01.538Z,26.4
2019-03-18T00:13:07.403Z,26.4
2019-03-18T00:16:13.457Z,26.4
2019-03-18T00:19:19.343Z,26.4
2019-03-18T00:22:25.473Z,26.4
2019-03-18T00:25:34.199Z,26.4
2019-03-18T00:28:40.157Z,26.4
2019-03-18T00:31:46.218Z,26.4
2019-03-18T00:34:52.278Z,26.5
2019-03-18T00:38:01.011Z,26.5
2019-03-18T00:41:06.963Z,26.5
2019-03-18T00:44:12.924Z,26.5
2019-03-18T00:47:18.884Z,26.5
2019-03-18T00:50:24.849Z,26.5
2019-03-18T00:53:30.713Z,26.5
2019-03-18T00:56:36.768Z,26.5
2019-03-18T00:59:42.671Z,26.5
2019-03-18T01:02:50.522Z,26.5
2019-03-18T01:05:56.588Z,26.3
2019-03-18T01:09:02.456Z,26.2
2019-03-18T01:12:08.396Z,26.3
2019-03-18T01:15:28.764Z,26.2
2019-03-18T01:18:34.856Z,26.2
2019-03-18T01:21:40.819Z,26.2
2019-03-18T01:24:46.779Z,26.2
2019-03-18T01:27:52.740Z,26.1
2019-03-18T01:30:58.808Z,26
2019-03-18T01:34:04.767Z,26
2019-03-18T01:37:10.730Z,26
2019-03-18T01:40:16.785Z,26
2019-03-18T01:43:23.597Z,25.9
2019-03-18T01:46:29.721Z,25.9
2019-03-18T01:49:35.592Z,25.9
2019-03-18T01:52:41.646Z,25.9
2019-03-18T01:55:47.583Z,25.8
2019-03-18T01:58:56.528Z,25.8
2019-03-18T02:02:02.592Z,25.8
2019-03-18T02:05:08.546Z,25.8
2019-03-18T02:08:14.504Z,25.8
2019-03-18T02:11:20.468Z,25.8
2019-03-18T02:14:26.427Z,25.8
2019-03-18T02:17:32.387Z,25.8
2019-03-18T02:20:38.464Z,25.8
2019-03-18T02:23:44.402Z,25.8
2019-03-18T02:26:50.465Z,25.8
2019-03-18T02:29:56.435Z,25.8
2019-03-18T02:33:02.487Z,25.8
2019-03-18T02:36:08.653Z,25.8
2019-03-18T02:39:14.713Z,25.8
2019-03-18T02:42:20.774Z,25.8
2019-03-18T02:45:26.755Z,25.8
2019-03-18T02:48:32.700Z,25.8
2019-03-18T02:51:38.759Z,25.8
2019-03-18T02:54:44.722Z,25.8
2019-03-18T02:57:50.787Z,25.9
2019-03-18T03:00:56.741Z,25.9
2019-03-18T03:04:02.797Z,25.8
2019-03-18T03:07:08.725Z,25.8
2019-03-18T03:10:14.903Z,25.8
2019-03-18T03:13:20.857Z,25.8
2019-03-18T03:16:28.283Z,25.8
2019-03-18T03:19:34.348Z,25.8
2019-03-18T03:22:43.995Z,25.8
2019-03-18T03:25:49.968Z,25.8
2019-03-18T03:28:56.014Z,25.8
2019-03-18T03:32:02.204Z,25.8
2019-03-18T03:35:08.357Z,25.8
2019-03-18T03:38:14.436Z,25.8
2019-03-18T03:41:20.665Z,25.9
2019-03-18T03:44:26.542Z,25.8
2019-03-18T03:47:32.580Z,25.8
2019-03-18T03:50:38.647Z,25.9
2019-03-18T03:53:44.709Z,25.9
2019-03-18T03:56:50.799Z,25.8
2019-03-18T03:59:56.821Z,25.8
2019-03-18T04:03:03.093Z,25.7
2019-03-18T04:06:09.004Z,25.7
2019-03-18T04:09:15.123Z,25.6
2019-03-18T04:12:21.182Z,25.5
2019-03-18T04:15:27.229Z,25.5
2019-03-18T04:18:33.301Z,25.3
2019-03-18T04:21:39.458Z,25.4
2019-03-18T04:24:45.519Z,25.3
2019-03-18T04:27:51.479Z,25.3
2019-03-18T04:30:57.373Z,25.3
2019-03-18T04:34:03.406Z,25.3
2019-03-18T04:37:09.367Z,25.2
2019-03-18T04:40:15.424Z,25.2
2019-03-18T04:43:21.385Z,25.2
2019-03-18T04:46:27.348Z,25.1
2019-03-18T04:49:33.308Z,25
2019-03-18T04:52:39.261Z,25
2019-03-18T04:55:45.212Z,24.9
2019-03-18T04:58:51.095Z,24.8
2019-03-18T05:01:57.052Z,24.8
2019-03-18T05:05:03.199Z,24.7
2019-03-18T05:08:09.179Z,24.7
2019-03-18T05:11:15.125Z,24.7
2019-03-18T05:14:21.087Z,24.8
2019-03-18T05:17:27.747Z,24.7
2019-03-18T05:20:33.808Z,24.7
2019-03-18T05:23:39.790Z,24.8
2019-03-18T05:26:45.930Z,24.7
2019-03-18T05:29:51.816Z,24.7
2019-03-18T05:32:57.833Z,24.6
2019-03-18T05:36:03.822Z,24.5
2019-03-18T05:39:09.883Z,25
2019-03-18T05:42:15.752Z,24.9
2019-03-18T05:45:21.688Z,24.6
2019-03-18T05:48:30.222Z,24.8
2019-03-18T05:51:36.177Z,24.4
2019-03-18T05:54:42.129Z,24.1
2019-03-18T05:57:48.089Z,24.4
2019-03-18T06:00:56.513Z,24.1
2019-03-18T06:04:02.452Z,23.8
2019-03-18T06:07:08.402Z,23.9
2019-03-18T06:10:14.381Z,24.1
2019-03-18T06:13:20.260Z,24.1
2019-03-18T06:16:26.376Z,24
2019-03-18T06:19:32.370Z,24
2019-03-18T06:22:38.242Z,23.8
2019-03-18T06:25:44.380Z,23.8
2019-03-18T06:28:50.339Z,24
2019-03-18T06:31:56.422Z,24.4
2019-03-18T06:35:02.566Z,24.2
2019-03-18T06:38:08.565Z,24
2019-03-18T06:41:14.586Z,23.7
2019-03-18T06:44:20.553Z,22.8
2019-03-18T06:47:26.534Z,23.2
2019-03-18T06:50:32.437Z,22.9
2019-03-18T06:53:40.985Z,22.8
2019-03-18T06:56:47.048Z,23
2019-03-18T06:59:53.004Z,22.3
2019-03-18T07:02:59.083Z,22.4
2019-03-18T07:06:05.239Z,22.7
2019-03-18T07:09:11.303Z,22.7
2019-03-18T07:12:17.297Z,22.5
2019-03-18T07:15:23.431Z,22.6
2019-03-18T07:18:29.483Z,23.5
2019-03-18T07:21:35.555Z,22.7
2019-03-18T07:24:41.596Z,22.9
2019-03-18T07:27:47.669Z,22.9
2019-03-18T07:30:53.733Z,23.4
2019-03-18T07:34:00.612Z,22.8
2019-03-18T07:37:06.547Z,23.1
2019-03-18T07:40:12.629Z,23.1
2019-03-18T07:43:18.595Z,23.6
2019-03-18T07:46:25.066Z,23
2019-03-18T07:49:31.046Z,23.1
2019-03-18T07:52:37.081Z,22.9
2019-03-18T07:55:43.067Z,23
2019-03-18T07:58:49.104Z,23.4
2019-03-18T08:01:56.110Z,23
2019-03-18T08:05:02.357Z,22.8
2019-03-18T08:08:08.234Z,22.9
2019-03-18T08:11:14.320Z,23.5
2019-03-18T08:14:20.312Z,23.2
2019-03-18T08:17:26.296Z,23.3
2019-03-18T08:20:32.457Z,22.5
2019-03-18T08:23:38.415Z,22.7
2019-03-18T08:26:44.294Z,22.9
2019-03-18T08:29:50.236Z,22.6
2019-03-18T08:32:56.294Z,22.2
2019-03-18T08:36:02.182Z,21.9
2019-03-18T08:39:08.219Z,22.7
2019-03-18T08:42:14.291Z,23.6
2019-03-18T08:45:20.345Z,23.2
2019-03-18T08:48:26.465Z,22.9
2019-03-18T08:51:32.487Z,23.6
2019-03-18T08:54:38.446Z,23.2
2019-03-18T08:57:44.488Z,22.8
2019-03-18T09:00:50.653Z,23.5
2019-03-18T09:03:56.520Z,23.4
2019-03-18T09:07:02.580Z,22.7
2019-03-18T09:10:08.525Z,23.2
2019-03-18T09:13:14.600Z,23.3
2019-03-18T09:16:20.565Z,22.6
2019-03-18T09:19:26.754Z,22.7
2019-03-18T09:22:32.775Z,23.2
2019-03-18T09:25:38.947Z,23.5
2019-03-18T09:28:45.002Z,23.3
2019-03-18T09:31:51.066Z,23
2019-03-18T09:34:57.129Z,23.8
2019-03-18T09:38:03.294Z,22.4
2019-03-18T09:41:09.566Z,23.5
2019-03-18T09:44:15.436Z,23.4
2019-03-18T09:47:21.470Z,23.5
2019-03-18T09:50:27.352Z,23.5
2019-03-18T09:53:33.399Z,23.6
2019-03-18T09:56:42.423Z,23.6
2019-03-18T09:59:48.362Z,23.4
2019-03-18T10:02:57.105Z,23.5
2019-03-18T10:06:05.852Z,23.6
2019-03-18T10:09:11.790Z,23.8
2019-03-18T10:12:17.690Z,23.7
2019-03-18T10:15:23.574Z,23.1
2019-03-18T10:18:29.565Z,23.2
2019-03-18T10:21:35.528Z,22.8
2019-03-18T10:24:41.428Z,22.7
2019-03-18T10:27:47.443Z,23
2019-03-18T10:30:53.503Z,23
2019-03-18T10:34:02.129Z,23.1
2019-03-18T10:37:08.087Z,22.7
2019-03-18T10:40:14.052Z,22.8
2019-03-18T10:43:19.927Z,22.2
2019-03-18T10:46:27.100Z,22.3
2019-03-18T10:49:45.084Z,22.8
2019-03-18T10:52:52.252Z,23.3
2019-03-18T10:56:08.378Z,23.2
2019-03-18T10:59:14.793Z,23
2019-03-18T11:02:20.749Z,22.6
2019-03-18T11:05:26.716Z,22.7
2019-03-18T11:08:32.768Z,23.4
2019-03-18T11:11:38.737Z,22.6
2019-03-18T11:14:44.688Z,22.5
2019-03-18T11:17:50.565Z,22.9
2019-03-18T11:20:56.504Z,22.7
2019-03-18T11:24:02.498Z,22.5
2019-03-18T11:27:08.397Z,22.7
2019-03-18T11:30:14.493Z,22.4
2019-03-18T11:33:20.651Z,22.7
2019-03-18T11:36:26.621Z,22.4
2019-03-18T11:39:35.230Z,22.8
2019-03-18T11:42:41.295Z,22.5
2019-03-18T11:45:48.379Z,22.4
2019-03-18T11:48:54.373Z,22.8
2019-03-18T11:52:00.504Z,23.1
2019-03-18T11:55:06.669Z,23
2019-03-18T11:58:12.736Z,23.2
2019-03-18T12:01:19.817Z,23.7
2019-03-18T12:04:25.778Z,22.6
2019-03-18T12:07:34.616Z,22.9
2019-03-18T12:10:40.564Z,22.7
2019-03-18T12:13:46.638Z,22.4
2019-03-18T12:16:52.691Z,22.3
2019-03-18T12:19:58.665Z,22.3
2019-03-18T12:23:04.712Z,22
2019-03-18T12:26:10.773Z,21.7
2019-03-18T12:29:16.841Z,22.6
2019-03-18T12:32:22.905Z,23.1
2019-03-18T12:35:28.911Z,23.1
2019-03-18T12:38:35.012Z,23.2
2019-03-18T12:41:41.182Z,22.6
2019-03-18T12:44:47.242Z,22.8
2019-03-18T12:47:53.202Z,22.4
2019-03-18T12:51:00.182Z,23.3
2019-03-18T12:54:06.246Z,23.5
2019-03-18T12:57:12.206Z,23.7
2019-03-18T13:00:18.266Z,23.4
2019-03-18T13:03:24.326Z,23.4
2019-03-18T13:06:33.293Z,22.4
2019-03-18T13:09:39.629Z,21.8
2019-03-18T13:12:45.706Z,21.6
2019-03-18T13:15:51.598Z,22.1
2019-03-18T13:18:57.514Z,22.4
2019-03-18T13:22:03.586Z,22.1
2019-03-18T13:25:09.628Z,21.9
2019-03-18T13:28:15.589Z,22.3
2019-03-18T13:31:21.524Z,22.1
2019-03-18T13:34:27.507Z,22.3
2019-03-18T13:37:33.506Z,22.4
2019-03-18T13:40:39.675Z,23.2
2019-03-18T13:43:49.160Z,23.6
2019-03-18T13:46:55.119Z,23.3
2019-03-18T13:50:01.510Z,23.3
2019-03-18T13:53:07.820Z,23.6
2019-03-18T13:56:14.360Z,23
2019-03-18T13:59:21.275Z,23.1
2019-03-18T14:02:27.342Z,23.1
2019-03-18T14:05:33.372Z,23.1
2019-03-18T14:08:39.544Z,23
2019-03-18T14:11:46.282Z,23.2
2019-03-18T14:14:53.113Z,23.7
2019-03-18T14:17:59.379Z,22.9
2019-03-18T14:21:05.513Z,22.8
2019-03-18T14:24:11.372Z,22.8
2019-03-18T14:27:17.526Z,22.8
2019-03-18T14:30:23.702Z,22.9
2019-03-18T14:33:29.748Z,22.7
2019-03-18T14:36:35.718Z,22.7
2019-03-18T14:39:42.551Z,22.7
2019-03-18T14:42:48.657Z,22.7
2019-03-18T14:45:54.719Z,22.8
2019-03-18T14:49:00.786Z,22.7
2019-03-18T14:52:06.662Z,22.7
2019-03-18T14:55:12.599Z,22.5
2019-03-18T14:58:18.567Z,22.6
2019-03-18T15:01:24.532Z,22.4
2019-03-18T15:04:30.588Z,22.5
2019-03-18T15:07:36.561Z,22.4
2019-03-18T15:10:42.610Z,22.4
2019-03-18T15:13:51.362Z,22.4
2019-03-18T15:16:57.497Z,22.4
2019-03-18T15:20:03.691Z,22.3
2019-03-18T15:23:09.711Z,22.4
2019-03-18T15:26:15.627Z,22.6
2019-03-18T15:29:21.551Z,22.4
2019-03-18T15:32:27.598Z,22.4
2019-03-18T15:35:33.655Z,22.2
2019-03-18T15:38:39.640Z,22.4
2019-03-18T15:41:48.402Z,22.5
2019-03-18T15:44:54.276Z,22.3
2019-03-18T15:48:06.400Z,22.3
2019-03-18T15:51:12.325Z,22.4
2019-03-18T15:54:18.314Z,22.3
2019-03-18T15:57:30.235Z,22.3
2019-03-18T16:00:36.174Z,22.2
2019-03-18T16:03:42.233Z,22.3
2019-03-18T16:06:48.114Z,22.4
2019-03-18T16:09:54.156Z,22.3
2019-03-18T16:13:00.118Z,22.4
2019-03-18T16:16:06.180Z,22.5
2019-03-18T16:19:12.135Z,22.5
2019-03-18T16:22:24.344Z,22.6
2019-03-18T16:25:30.400Z,22.7
2019-03-18T16:28:36.360Z,22.5
2019-03-18T16:31:42.319Z,22.5
2019-03-18T16:34:48.282Z,22.6
2019-03-18T16:37:54.342Z,22.7
2019-03-18T16:41:00.298Z,22.7
2019-03-18T16:44:06.259Z,22.8
2019-03-18T16:47:12.221Z,22.8
2019-03-18T16:50:18.280Z,23
2019-03-18T16:53:24.349Z,22.9
2019-03-18T16:56:30.284Z,22.9
2019-03-18T16:59:36.195Z,22.8
2019-03-18T17:02:42.328Z,22.8
2019-03-18T17:05:48.391Z,22.8
2019-03-18T17:08:54.447Z,22.9
2019-03-18T17:12:00.385Z,22.9
2019-03-18T17:15:06.366Z,22.9
2019-03-18T17:18:12.301Z,22.8
2019-03-18T17:21:23.684Z,22.8
2019-03-18T17:24:29.583Z,22.8
2019-03-18T17:27:35.635Z,22.8
2019-03-18T17:30:41.574Z,22.8
2019-03-18T17:33:47.549Z,22.7
2019-03-18T17:36:53.513Z,22.1
2019-03-18T17:39:59.474Z,22.2
2019-03-18T17:43:05.533Z,22.2
2019-03-18T17:46:11.596Z,22.3
2019-03-18T17:49:17.580Z,22.3
2019-03-18T17:52:23.617Z,22.2
2019-03-18T17:55:29.614Z,22.3
2019-03-18T17:58:35.642Z,22.3
2019-03-18T18:01:41.695Z,22.4
2019-03-18T18:04:47.576Z,22.4
2019-03-18T18:08:06.838Z,22.4
2019-03-18T18:11:12.713Z,22.2
2019-03-18T18:14:18.650Z,22.3
2019-03-18T18:17:24.592Z,22.3
2019-03-18T18:20:30.672Z,22.4
2019-03-18T18:23:39.804Z,22.4
2019-03-18T18:26:45.762Z,22.4
2019-03-18T18:29:51.729Z,22.7
2019-03-18T18:32:57.677Z,22.6
2019-03-18T18:36:03.751Z,22.7
2019-03-18T18:39:09.711Z,22.9
2019-03-18T18:42:15.661Z,23
2019-03-18T18:45:21.940Z,23.1
2019-03-18T18:48:27.990Z,23.2
2019-03-18T18:51:33.953Z,23.3
2019-03-18T18:54:40.013Z,23.4
2019-03-18T18:57:46.067Z,23.5
2019-03-18T19:00:52.055Z,23.6
2019-03-18T19:03:57.998Z,23.7
2019-03-18T19:07:03.974Z,23.6
2019-03-18T19:10:09.835Z,23.8
2019-03-18T19:13:18.439Z,23.7
2019-03-18T19:16:24.338Z,23.9
2019-03-18T19:19:32.703Z,23.9
2019-03-18T19:22:38.886Z,24
2019-03-18T19:25:44.842Z,24
2019-03-18T19:28:50.888Z,24.1
2019-03-18T19:31:56.853Z,24.2
2019-03-18T19:35:04.978Z,24.3
2019-03-18T19:38:10.944Z,24.2
2019-03-18T19:41:16.964Z,24.3
2019-03-18T19:44:22.960Z,24.3
2019-03-18T19:47:29.006Z,24.4
2019-03-18T19:50:34.947Z,24.4
2019-03-18T19:53:49.722Z,24.5
2019-03-18T19:56:55.710Z,24.5
2019-03-18T20:00:01.769Z,24.6
2019-03-18T20:03:07.728Z,24.5
2019-03-18T20:06:13.780Z,24.5
2019-03-18T20:09:19.924Z,24.5
2019-03-18T20:12:26.622Z,24.6
2019-03-18T20:15:32.697Z,24.5
2019-03-18T20:18:38.743Z,24.6
2019-03-18T20:21:44.705Z,24.6
2019-03-18T20:24:50.757Z,24.6
2019-03-18T20:27:56.734Z,24.6
2019-03-18T20:31:02.686Z,24.7
2019-03-18T20:34:08.619Z,24.7
2019-03-18T20:37:14.814Z,24.8
2019-03-18T20:40:20.678Z,24.8
2019-03-18T20:43:26.821Z,24.9
2019-03-18T20:46:35.543Z,24.9
2019-03-18T20:49:44.130Z,24.9
2019-03-18T20:52:50.124Z,25
2019-03-18T20:55:56.001Z,25.1
2019-03-18T20:59:02.042Z,25.1
2019-03-18T21:02:07.914Z,25.1
2019-03-18T21:05:13.870Z,25.2
2019-03-18T21:08:19.941Z,25.2
2019-03-18T21:11:25.806Z,25.3
2019-03-18T21:14:31.743Z,25.3
2019-03-18T21:17:37.683Z,25.4
2019-03-18T21:20:43.582Z,25.5
2019-03-18T21:23:49.447Z,25.5
2019-03-18T21:26:57.827Z,25.6
2019-03-18T21:30:03.734Z,25.7
2019-03-18T21:33:09.781Z,25.8
2019-03-18T21:36:38.012Z,25.8
2019-03-18T21:39:44.305Z,25.9
2019-03-18T21:42:50.265Z,26
2019-03-18T21:45:56.165Z,26
2019-03-18T21:49:02.176Z,26
2019-03-18T21:52:08.105Z,26.1
2019-03-18T21:55:14.199Z,26.2
2019-03-18T21:58:20.364Z,26.3
2019-03-18T22:01:26.322Z,26.3
2019-03-18T22:04:32.282Z,26.4
2019-03-18T22:07:38.238Z,26.4
2019-03-18T22:10:44.200Z,26.5
2019-03-18T22:13:50.161Z,26.6
2019-03-18T22:16:56.225Z,26.6
2019-03-18T22:20:02.185Z,26.6
2019-03-18T22:23:08.142Z,26.7
2019-03-18T22:26:14.028Z,26.7
2019-03-18T22:29:19.959Z,26.7
2019-03-18T22:32:26.019Z,26.8
2019-03-18T22:35:31.908Z,26.9
2019-03-18T22:38:37.935Z,26.9
2019-03-18T22:41:44.115Z,27
2019-03-18T22:44:50.034Z,26.9
2019-03-18T22:47:56.022Z,27
2019-03-18T22:51:01.894Z,27
2019-03-18T22:54:07.840Z,27
2019-03-18T22:57:13.799Z,27
2019-03-18T23:00:19.877Z,27.1
2019-03-18T23:03:25.930Z,27.1
2019-03-18T23:06:31.983Z,27.1
2019-03-18T23:09:37.940Z,27.1
2019-03-18T23:12:43.901Z,27.2
2019-03-18T23:15:49.859Z,27.2
2019-03-18T23:18:55.823Z,27.3
2019-03-18T23:22:01.895Z,27.3
2019-03-18T23:25:10.721Z,27.4
2019-03-18T23:28:16.582Z,27.3
2019-03-18T23:31:22.543Z,27.4
2019-03-18T23:34:28.398Z,27.4
2019-03-18T23:37:34.346Z,27.5
2019-03-18T23:40:40.409Z,27.5
2019-03-18T23:43:46.290Z,27.6
2019-03-18T23:46:52.221Z,27.6
2019-03-18T23:49:58.183Z,27.6
2019-03-18T23:53:04.345Z,27.7
2019-03-18T23:56:10.220Z,27.7
2019-03-18T23:59:16.272Z,27.7
